Date,TemperatureHighF,TemperatureAvgF,TemperatureLowF,DewpointHighF,DewpointAvgF,DewpointLowF,HumidityHigh,HumidityAvg,HumidityLow,PressureMaxIn,PressureMinIn,WindSpeedMaxMPH,WindSpeedAvgMPH,GustSpeedMaxMPH,PrecipitationSumIn
2013-7-1,74.7,67.4,58.3,57.9,51.5,41.9,91,59,32,30.11,30.00,10,1,10,0.00
2013-7-2,78.5,69.4,57.8,57.7,49.2,38.9,83,52,27,30.07,29.93,6,0,6,0.00
2013-7-3,84.3,71.3,61.0,56.5,50.1,41.1,72,51,23,29.96,29.72,13,3,16,0.00
2013-7-4,89.5,75.5,62.1,54.5,48.9,41.3,69,42,20,29.77,29.62,18,5,18,0.00
2013-7-5,90.3,77.9,65.5,62.3,55.1,46.5,66,47,28,29.65,29.55,15,4,15,0.00
2013-7-6,95.4,80.7,67.9,71.5,62.3,55.0,79,56,27,29.57,29.49,20,3,20,0.00
2013-7-7,87.4,79.0,67.9,74.1,68.0,60.9,100,70,49,29.73,29.54,12,1,12,0.00
2013-7-8,89.5,79.1,70.6,75.4,70.8,63.6,100,79,46,29.79,29.64,14,2,14,0.04
2013-7-9,90.5,79.2,70.6,76.2,70.1,64.7,97,75,48,29.87,29.67,18,3,18,0.01
2013-7-10,80.7,74.9,69.8,74.0,67.0,59.5,100,78,55,29.98,29.81,14,3,14,0.00
2013-7-11,89.7,77.4,67.3,71.9,68.4,64.7,100,76,46,29.89,29.69,19,3,19,0.00
2013-7-12,99.9,84.5,71.1,71.7,66.0,56.3,100,59,24,29.73,29.56,18,6,18,0.00
2013-7-13,101.7,87.4,75.6,73.7,64.6,54.1,76,50,22,29.66,29.55,17,5,17,0.00
2013-7-14,82.6,76.3,70.9,73.5,71.0,65.6,100,84,66,29.95,29.60,14,2,14,0.00
2013-7-15,83.8,73.6,63.1,70.9,61.9,52.0,100,71,34,30.01,29.93,12,1,12,0.00
2013-7-16,82.2,72.4,64.2,68.3,63.9,58.4,100,78,45,30.10,29.97,21,6,21,0.00
2013-7-17,87.2,76.0,63.7,67.0,63.4,58.6,100,69,41,30.12,29.95,19,6,19,0.00
2013-7-18,91.8,80.3,68.6,69.6,63.7,56.5,100,61,31,29.97,29.70,21,10,27,0.00
2013-7-19,83.8,77.3,69.8,70.3,64.9,58.8,90,67,48,29.81,29.72,17,3,17,0.00
2013-7-20,83.8,73.9,65.5,72.8,67.9,58.7,100,83,55,29.86,29.67,31,1,31,0.00
2013-7-21,90.3,73.7,59.3,71.1,61.4,51.0,100,72,27,29.86,29.59,31,3,31,0.09
2013-7-22,89.7,78.4,64.2,75.0,64.9,50.4,100,66,37,29.72,29.53,18,3,18,0.20
2013-7-23,84.1,74.0,64.5,69.8,64.5,57.3,99,74,41,29.84,29.65,28,4,28,0.00
2013-7-24,85.5,73.9,62.1,69.4,65.1,56.8,100,78,38,29.96,29.82,12,2,12,0.00
2013-7-25,77.0,71.8,65.3,72.0,65.5,53.3,100,82,50,29.91,29.81,17,3,17,0.09
2013-7-26,74.7,69.0,64.7,68.9,60.4,52.9,100,76,47,30.06,29.89,18,4,18,0.00
2013-7-27,64.5,59.8,56.5,59.0,56.0,51.8,100,88,66,30.04,29.93,10,1,10,0.29
2013-7-28,61.5,59.1,56.7,60.1,57.5,53.0,100,95,80,29.95,29.87,8,0,10,0.00
2013-7-29,69.1,65.1,59.6,68.9,65.1,59.6,100,100,100,29.90,29.80,10,1,10,0.22
2013-7-30,79.4,70.0,65.2,72.1,67.8,65.2,100,93,71,30.03,29.86,17,1,17,0.00
2013-7-31,80.1,71.8,62.9,69.8,66.6,62.6,100,85,60,30.04,29.91,36,2,36,0.13